• Join FlightAware (Why Join?)
  • Login
  • US Flag 
09:56AM EDT


 

Airport Tracker/Info


-or-


 

Live Flight TrackerFlight Track Log ✈ FSR411 ✈ 05-Feb-2014 ✈ KCMI - KLAS

Flight Track Log - Related Links

Times and Time Zones

All times are in EST time to prevent confusion due to time zone crossing. See the FSR411 flight status page for this flight to view local times or setup timezone preferences in your user account.

Time Position Orientation Groundspeed Altitude Reporting Facility
EST Latitude Longitude Course Direction KTS MPH feet Rate Location/Type
11:54AM 40.0553 -88.3022 270° West 151 174 43,000  Level Chicago Center
11:55AM 40.0533 -88.3775 268° West 235 270 4,200 -17,460 Descending Chicago Center
11:56AM 40.0544 -88.4683 271° West 250 288 7,300 3,120 Climbing Chicago Center
11:57AM 40.0519 -88.5644 268° West 259 298 10,700 3,660 Climbing Chicago Center
11:58AM 40.0492 -88.6942 268° West 290 334 14,900 3,780 Climbing Chicago Center
11:59AM 40.0464 -88.8164 268° West 333 383 18,500 3,360 Climbing Chicago Center
12:00PM 40.0167 -88.9296 270° West  Level FlightAware Approximate
12:00PM 40.0436 -88.9411 268° West 344 396 21,800  Level Chicago Center
12:02PM 40.0406 -89.0772 268° West 370 426 23,100 2,280 Climbing Chicago Center
12:03PM 40.0372 -89.2103 268° West 369 425 26,500 2,820 Climbing Chicago Center
12:04PM 40.0336 -89.3403 268° West 360 414 28,900 2,760 Climbing Chicago Center
12:04PM 40.0300 -89.4183 267° West 359 413 30,700 2,940 Climbing Kansas City Center
12:05PM 40.0264 -89.5408 268° West 340 391 33,400 1,560 Climbing Kansas City Center
12:06PM 40.0236 -89.6569 268° West 330 380 34,000 240 Climbing Kansas City Center
12:07PM 40.0197 -89.7769 268° West 329 379 34,000 360 Level Kansas City Center
12:08PM 40.0164 -89.8986 268° West 331 381 34,800 1,080 Climbing Kansas City Center
12:09PM 40.0114 -90.0189 267° West 332 382 36,300 1,260 Climbing Kansas City Center
12:10PM 40.0078 -90.1386 268° West 331 381 37,400 1,020 Climbing Kansas City Center
12:11PM 40.0039 -90.2578 268° West 330 380 38,400 900 Climbing Kansas City Center
12:12PM 40.0000 -90.3789 268° West 331 381 39,300 900 Climbing Kansas City Center
12:13PM 39.9956 -90.4989 267° West 332 382 40,300 900 Climbing Kansas City Center
12:14PM 39.9897 -90.6414 267° West 329 379 41,200 720 Climbing Kansas City Center
12:15PM 39.9858 -90.7583 268° West 325 374 41,900 660 Climbing Kansas City Center
12:16PM 39.9806 -90.8728 267° West 319 367 42,600 480 Climbing Kansas City Center
12:17PM 39.9750 -90.9981 267° West 320 368 43,000 180 Climbing Kansas City Center
12:18PM 39.9703 -91.1156 267° West 324 373 43,000  Level Kansas City Center
12:19PM 39.9653 -91.2369 267° West 332 382 43,000  Level Kansas City Center
12:20PM 39.9592 -91.3589 266° West 338 389 43,000  Level Kansas City Center
12:22PM 39.9539 -91.4814 267° West 340 391 43,000  Level Kansas City Center
12:23PM 39.9492 -91.6019 267° West 337 388 43,000  Level Kansas City Center
12:24PM 39.9428 -91.7222 266° West 334 384 43,000  Level Kansas City Center
12:25PM 39.9364 -91.8664 267° West 332 382 43,000  Level Kansas City Center
12:26PM 39.9306 -91.9833 266° West 329 379 43,000  Level Kansas City Center
12:27PM 39.9242 -92.1011 266° West 326 375 43,000  Level Kansas City Center
12:28PM 39.9186 -92.2167 266° West 322 371 43,000  Level Kansas City Center
12:29PM 39.9128 -92.3317 266° West 320 368 43,000  Level Kansas City Center
12:30PM 39.9067 -92.4475 266° West 320 368 43,000  Level Kansas City Center
12:31PM 39.9000 -92.5631 266° West 319 367 43,000  Level Kansas City Center
12:32PM 39.8933 -92.6800 266° West 322 371 43,000  Level Kansas City Center
12:33PM 39.8867 -92.7956 266° West 320 368 43,000  Level Kansas City Center
12:34PM 39.8800 -92.9350 266° West 322 371 43,000  Level Kansas City Center
12:35PM 39.8731 -93.0511 266° West 322 371 43,000  Level Kansas City Center
12:36PM 39.8653 -93.1678 265° West 323 372 43,000  Level Kansas City Center
12:37PM 39.8589 -93.2847 266° West 324 373 43,000  Level Kansas City Center
12:38PM 39.8519 -93.4022 266° West 326 375 43,000  Level Kansas City Center
12:39PM 39.8431 -93.5186 264° West 325 374 43,000  Level Kansas City Center
12:40PM 39.8353 -93.6350 265° West 325 374 43,000  Level Kansas City Center
12:41PM 39.8286 -93.7528 266° West 327 376 43,000  Level Kansas City Center
12:42PM 39.8189 -93.8933 265° West 326 375 43,000  Level Kansas City Center
12:43PM 39.8117 -94.0094 265° West 324 373 43,000  Level Kansas City Center
12:44PM 39.8033 -94.1219 265° West 321 369 43,000  Level Kansas City Center
12:45PM 39.7939 -94.2519 265° West 324 373 43,000  Level Kansas City Center
12:46PM 39.7869 -94.3650 265° West 327 376 43,000  Level Kansas City Center
12:47PM 39.7792 -94.4764 265° West 324 373 43,000  Level Kansas City Center
12:48PM 39.7686 -94.6089 264° West 330 380 43,000  Level Kansas City Center
12:49PM 39.7617 -94.7217 265° West 327 376 43,000  Level Kansas City Center
12:50PM 39.7517 -94.8508 264° West 323 372 43,000  Level Kansas City Center
12:51PM 39.7428 -94.9628 264° West 326 375 43,000  Level Kansas City Center
12:52PM 39.7333 -95.0939 265° West 327 376 43,000  Level Kansas City Center
12:53PM 39.7244 -95.2053 264° West 327 376 43,000  Level Kansas City Center
12:54PM 39.7147 -95.3358 265° West 326 375 43,000  Level Kansas City Center
12:55PM 39.7056 -95.4475 264° West 326 375 43,000  Level Kansas City Center
12:56PM 39.6961 -95.5583 264° West 324 373 43,000  Level Kansas City Center
12:57PM 39.6861 -95.6869 264° West 323 372 43,000  Level Kansas City Center
12:58PM 39.6764 -95.7958 263° West 319 367 43,000  Level Kansas City Center
12:59PM 39.6658 -95.9256 264° West 323 372 43,000  Level Kansas City Center
01:02PM 39.6456 -96.1636 260° West 322 371 43,000  Level Kansas City Center
01:03PM 39.6361 -96.2725 264° West 318 366 43,000  Level Kansas City Center
01:04PM 39.6278 -96.3828 264° West 321 369 43,000 60 Level Kansas City Center
01:05PM 39.6153 -96.5128 263° West 327 376 43,200 240 Climbing Kansas City Center
01:06PM 39.6053 -96.6256 263° West 330 380 43,600 480 Climbing Kansas City Center
01:07PM 39.5925 -96.7586 263° West 332 382 44,200 480 Climbing Kansas City Center
01:08PM 39.5817 -96.8700 263° West 327 376 44,600 360 Climbing Kansas City Center
01:09PM 39.5708 -97.0000 264° West 325 374 45,000 180 Climbing Kansas City Center
01:10PM 39.5597 -97.1133 263° West 330 380 45,000  Level Kansas City Center
01:11PM 39.5492 -97.2294 263° West 333 383 45,000  Level Kansas City Center
01:12PM 39.5375 -97.3503 263° West 335 386 45,000  Level Kansas City Center
01:13PM 39.5231 -97.4969 263° West 340 391 45,000  Level Kansas City Center
01:14PM 39.5108 -97.6175 263° West 338 389 45,000  Level Kansas City Center
01:15PM 39.4989 -97.7361 263° West 335 386 45,000  Level Kansas City Center
01:16PM 39.4869 -97.8550 263° West 332 382 45,000  Level Kansas City Center
01:17PM 39.4756 -97.9694 263° West 325 374 45,000  Level Kansas City Center
01:18PM 39.4628 -98.0986 263° West 325 374 45,000  Level Kansas City Center
01:19PM 39.4489 -98.2244 262° West 327 376 45,000  Level Kansas City Center
01:20PM 39.4358 -98.3453 262° West 329 379 45,000  Level Kansas City Center
01:21PM 39.4239 -98.4617 262° West 327 376 45,000  Level Kansas City Center
01:22PM 39.4131 -98.5653 262° West 329 379 45,000  Level Kansas City Center
01:23PM 39.3975 -98.6989 261° West 337 388 45,000  Level Kansas City Center
01:24PM 39.3847 -98.8239 263° West 346 398 45,000  Level Denver Center
01:25PM 39.3711 -98.9478 262° West 349 402 45,000  Level Denver Center
01:26PM 39.3561 -99.0850 262° West 357 411 45,000  Level Denver Center
01:27PM 39.3422 -99.2058 262° West 355 409 45,000  Level Denver Center
01:28PM 39.3261 -99.3461 262° West 354 407 45,000  Level Denver Center
01:29PM 39.3128 -99.4683 262° West 356 410 45,000  Level Denver Center
01:30PM 39.2983 -99.5892 261° West 356 410 45,000  Level Denver Center
01:31PM 39.2836 -99.7106 261° West 356 410 45,000  Level Denver Center
01:32PM 39.2675 -99.8517 262° West 356 410 45,000  Level Denver Center
01:33PM 39.2503 -99.9922 261° West 355 409 45,000  Level Denver Center
01:34PM 39.2353 -100.1133 261° West 356 410 45,000  Level Denver Center
01:36PM 39.2178 -100.2567 261° West 361 415 45,000  Level Denver Center
01:37PM 39.2033 -100.3781 261° West 360 414 45,000  Level Denver Center
01:38PM 39.1858 -100.5167 261° West 352 405 45,000  Level Denver Center
01:39PM 39.1703 -100.6383 261° West 357 411 45,000  Level Denver Center
01:40PM 39.1550 -100.7606 261° West 359 413 45,000  Level Denver Center
01:41PM 39.1389 -100.8822 260° West 359 413 45,000  Level Denver Center
01:42PM 39.1228 -101.0028 260° West 357 411 45,000  Level Denver Center
01:43PM 39.1017 -101.1681 261° West 362 417 45,000  Level Denver Center
01:44PM 39.0861 -101.2903 261° West 362 417 45,000  Level Denver Center
01:45PM 39.0672 -101.4336 260° West 364 419 45,000  Level Denver Center
01:46PM 39.0506 -101.5575 260° West 366 421 45,000  Level Denver Center
01:47PM 39.0322 -101.6944 260° West 361 415 45,000  Level Denver Center
01:48PM 39.0147 -101.8175 260° West 366 421 45,000  Level Denver Center
01:49PM 38.9950 -101.9608 260° West 364 419 45,000  Level Denver Center
01:50PM 38.9781 -102.0822 260° West 364 419 45,000  Level Denver Center
01:51PM 38.9608 -102.2042 260° West 363 418 45,000  Level Denver Center
01:52PM 38.9408 -102.3450 260° West 359 413 45,000  Level Denver Center
01:53PM 38.9244 -102.4669 260° West 360 414 45,000  Level Denver Center
01:54PM 38.9028 -102.6097 259° West 364 419 45,000  Level Denver Center
01:55PM 38.8853 -102.7306 259° West 362 417 45,000  Level Denver Center
01:56PM 38.8681 -102.8561 260° West 364 419 45,000  Level Denver Center
01:57PM 38.8456 -103.0072 259° West 362 417 45,000  Level Denver Center
01:58PM 38.8264 -103.1342 259° West 363 418 45,000  Level Denver Center
01:59PM 38.8081 -103.2594 259° West 360 414 45,000  Level Denver Center
02:00PM 38.7894 -103.3858 259° West 361 415 45,000  Level Denver Center
02:01PM 38.7694 -103.5203 259° West 365 420 45,000  Level Denver Center
02:02PM 38.7500 -103.6417 258° West 364 419 45,000  Level Denver Center
02:03PM 38.7283 -103.7839 259° West 365 420 45,000  Level Denver Center
02:04PM 38.7092 -103.9075 259° West 366 421 45,000  Level Denver Center
02:05PM 38.6867 -104.0494 259° West 366 421 45,000  Level Denver Center
02:06PM 38.6669 -104.1789 259° West 366 421 45,000  Level Denver Center
02:07PM 38.6464 -104.3064 258° West 366 421 45,000  Level Denver Center
02:08PM 38.6261 -104.4361 259° West 370 426 45,000  Level Denver Center
02:10PM 38.6050 -104.5619 258° West 364 419 45,000  Level Denver Center
02:11PM 38.5850 -104.6900 259° West 366 421 45,000  Level Denver Center
02:12PM 38.5600 -104.8428 258° West 366 421 45,000  Level Denver Center
02:13PM 38.5383 -104.9717 258° West 368 423 45,000  Level Denver Center
02:14PM 38.5172 -105.0992 258° West 367 422 45,000  Level Denver Center
02:15PM 38.4964 -105.2283 258° West 370 426 45,000  Level Denver Center
02:16PM 38.4736 -105.3572 257° West 372 428 45,000  Level Denver Center
02:17PM 38.4522 -105.4875 258° West 372 428 45,000  Level Denver Center
02:18PM 38.4256 -105.6422 258° West 374 430 45,000  Level Denver Center
02:19PM 38.4031 -105.7725 258° West 376 433 45,000  Level Denver Center
02:20PM 38.3819 -105.8931 257° West 375 432 45,000  Level Denver Center
02:21PM 38.3561 -106.0381 257° West 375 432 45,000  Level Denver Center
02:22PM 38.3336 -106.1697 258° West 378 435 45,000  Level Denver Center
02:23PM 38.3094 -106.3017 257° West 380 437 45,000  Level Denver Center
02:24PM 38.2858 -106.4339 257° West 381 438 45,000  Level Denver Center
02:25PM 38.2611 -106.5733 257° West 382 440 45,000  Level Denver Center
02:26PM 38.2333 -106.7219 257° West 385 443 45,000  Level Denver Center
02:27PM 38.2106 -106.8469 257° West 381 438 45,000  Level Denver Center
02:28PM 38.1886 -106.9639 257° West 383 441 45,000  Level Denver Center
02:29PM 38.1594 -107.1250 257° West 387 445 45,000  Level Denver Center
02:30PM 38.1361 -107.2494 257° West 384 442 45,000  Level Denver Center
02:31PM 38.1086 -107.3967 257° West 384 442 45,000  Level Denver Center
02:32PM 38.0842 -107.5231 256° West 385 443 45,000  Level Denver Center
02:33PM 38.0575 -107.6672 257° West 384 442 45,000  Level Denver Center
02:34PM 38.0328 -107.7936 256° West 385 443 45,000  Level Denver Center
02:35PM 38.0044 -107.9419 256° West 387 445 45,000  Level Denver Center
02:36PM 37.9797 -108.0683 256° West 387 445 45,000  Level Denver Center
02:37PM 37.9511 -108.2158 256° West 386 444 45,000  Level Denver Center
02:38PM 37.9261 -108.3428 256° West 388 447 45,000  Level Denver Center
02:39PM 37.8972 -108.4892 256° West 386 444 45,000  Level Denver Center
02:40PM 37.8717 -108.6147 256° West 385 443 45,000  Level Denver Center
02:42PM 37.8461 -108.7419 256° West 388 447 45,000  Level Denver Center
02:43PM 37.8169 -108.8914 256° West 390 449 45,000  Level Denver Center
02:44PM 37.7878 -109.0161 254° West 388 447 45,000  Level Denver Center
02:45PM 37.7517 -109.1639 253° West 395 455 45,000 -300 Level Denver Center
02:46PM 37.7194 -109.2883 252° West 391 450 44,400 -960 Descending Denver Center
02:47PM 37.6839 -109.4339 253° West 389 448 43,100 -1,200 Descending Denver Center
02:48PM 37.6519 -109.5617 253° West 396 456 42,000 -1,260 Descending Denver Center
02:49PM 37.6139 -109.7100 252° West 399 459 40,600 -1,200 Descending Denver Center
02:50PM 37.5875 -109.8147 252° West 395 455 39,600 -1,020 Descending Denver Center
02:51PM 37.5514 -109.9561 252° West 383 441 38,500 -1,020 Descending Denver Center
02:52PM 37.5167 -110.0936 252° West 372 428 37,600 -960 Descending Denver Center
02:53PM 37.4806 -110.2306 252° West 378 435 36,600 -780 Descending Denver Center
02:54PM 37.4467 -110.3586 252° West 385 443 36,100 -300 Descending Denver Center
02:55PM 37.4142 -110.4858 252° West 383 441 36,000 -420 Descending Denver Center
02:56PM 37.3806 -110.6139 252° West 385 443 35,300 -840 Descending Denver Center
02:57PM 37.3472 -110.7411 252° West 384 442 34,300 -1,020 Descending Denver Center
02:58PM 37.3139 -110.8689 252° West 385 443 33,300 -960 Descending Denver Center
02:59PM 37.2800 -110.9961 252° West 384 442 32,400 -660 Descending Denver Center
03:00PM 37.2383 -111.1483 251° West 384 442 32,000 -240 Descending Denver Center
03:01PM 37.2044 -111.2756 252° West 384 442 32,000  Level Denver Center
03:02PM 37.1708 -111.4017 252° West 381 438 32,000  Level Denver Center
03:03PM 37.1411 -111.5344 254° West 393 452 32,000  Level Denver Center
03:04PM 37.1136 -111.6722 256° West 403 464 32,000  Level Denver Center
03:05PM 37.0847 -111.8119 256° West 411 473 32,000  Level Denver Center
03:06PM 37.0564 -111.9519 256° West 413 475 32,000  Level Denver Center
03:07PM 37.0189 -112.1217 255° West 419 482 32,000  Level Denver Center
03:08PM 37.0028 -112.1794 251° West 421 484 32,000  Level Los Angeles Center
03:09PM 36.9736 -112.3203 256° West 419 482 32,000  Level Los Angeles Center
03:10PM 36.9422 -112.4625 255° West 422 486 32,000  Level Los Angeles Center
03:11PM 36.9114 -112.6039 255° West 421 484 32,000  Level Los Angeles Center
03:12PM 36.8736 -112.7744 255° West 423 487 32,000  Level Los Angeles Center
03:13PM 36.8425 -112.9158 255° West 423 487 32,000  Level Los Angeles Center
03:14PM 36.8103 -113.0586 254° West 426 490 32,000 -240 Level Los Angeles Center
03:15PM 36.7778 -113.2014 254° West 428 493 31,600 -1,260 Descending Los Angeles Center
03:16PM 36.7469 -113.3389 254° West 416 479 29,500 -2,100 Descending Los Angeles Center
03:17PM 36.7150 -113.4772 254° West 416 479 27,300 -2,400 Descending Los Angeles Center
03:18PM 36.6767 -113.6475 254° West 423 487 24,600 -2,400 Descending Los Angeles Center
03:19PM 36.6458 -113.7847 254° West 417 480 22,400 -2,160 Descending Los Angeles Center
03:20PM 36.6103 -113.9139 251° West 403 464 20,200 -2,160 Descending Los Angeles Center
03:21PM 36.5628 -114.0294 243° Southwest 384 442 18,000 -2,100 Descending Los Angeles Center
03:22PM 36.5222 -114.1389 245° Southwest 359 413 15,900 -2,340 Descending Los Angeles Center
03:23PM 36.5064 -114.1897 249° West 348 400 14,900 -1,920 Descending Los Angeles Center
03:24PM 36.4739 -114.2625 241° Southwest 335 386 13,500 -1,800 Descending Los Angeles Center
03:24PM 36.4475 -114.3414 247° West 317 365 12,200 -1,500 Descending Los Angeles Center
03:25PM 36.4306 -114.3800 241° Southwest 314 361 12,000 -240 Descending Los Angeles Center
03:25PM 36.4122 -114.4364 248° West 299 344 12,000 -120 Level Los Angeles Center
03:26PM 36.3947 -114.4703 237° Southwest 297 342 11,900 -840 Descending Los Angeles Center
03:26PM 36.3522 -114.4969 207° Southwest 302 348 11,200 -900 Descending Los Angeles Center
03:27PM 36.3150 -114.5036 188° South 304 350 11,000 -240 Descending Los Angeles Center
03:27PM 36.2700 -114.5167 193° South 297 342 11,000 -480 Level Los Angeles Center
03:28PM 36.2406 -114.5397 212° Southwest 297 342 10,500 -1,560 Descending Los Angeles Center
03:28PM 36.2167 -114.5778 232° Southwest 284 327 9,600 -1,380 Descending Los Angeles Center
03:29PM 36.1897 -114.6128 226° Southwest 279 321 9,100 -900 Descending Los Angeles Center
03:29PM 36.1692 -114.6469 233° Southwest 265 305 8,700 -1,020 Descending Los Angeles Center
03:30PM 36.1578 -114.6886 251° West 262 302 8,100 -720 Descending Los Angeles Center
03:30PM 36.1531 -114.7297 262° West 230 265 8,000 -780 Descending Los Angeles Center
03:31PM 36.1428 -114.7758 255° West 229 264 7,300 -1,320 Descending Los Angeles Center
03:31PM 36.1411 -114.8031 266° West 213 245 6,700 -1,680 Descending Los Angeles Center
03:32PM 36.1378 -114.8506 265° West 221 254 5,600 -1,680 Descending Los Angeles Center
03:32PM 36.1392 -114.8731 274° West 222 255 5,200 -1,320 Descending Los Angeles Center
03:33PM 36.1342 -114.9492 265° West 222 255 4,000 -720 Descending Los Angeles Center
03:34PM 36.1333 -115.0067 269° West 202 232 3,900 -240 Descending Los Angeles Center
03:34PM 36.1336 -115.0161 272° West 189 217 3,800 -600 Descending Los Angeles Center
03:35PM 36.1347 -115.0667 272° West 178 205 3,300 -660 Descending Los Angeles Center
03:35PM 36.1350 -115.0717 274° West 180 207 3,200 -420 Descending Los Angeles Center
03:36PM 36.1342 -115.1294 269° West 170 196 2,900 -360 Descending Los Angeles Center
03:36PM 36.1308 -115.1317 208° Southwest 158 182 2,800 -720 Descending Los Angeles Center
03:37PM 36.0994 -115.1525 208° Southwest 142 163 2,200 -660 Descending Los Angeles Center
03:39PM 36.0801 -115.1523 219° Southwest  Level Estimated